createdAt,value
2019-04-06T00:00:48.655Z,8.81
2019-04-06T00:03:18.514Z,8.82
2019-04-06T00:05:47.566Z,8.82
2019-04-06T00:08:16.958Z,8.80
2019-04-06T00:10:45.851Z,8.78
2019-04-06T00:13:14.727Z,8.79
2019-04-06T00:15:44.267Z,8.78
2019-04-06T00:18:13.735Z,8.76
2019-04-06T00:20:42.719Z,8.69
2019-04-06T00:23:12.643Z,8.69
2019-04-06T00:25:44.781Z,8.70
2019-04-06T00:28:12.368Z,8.70
2019-04-06T00:30:48.786Z,8.68
2019-04-06T00:33:20.001Z,8.68
2019-04-06T00:35:49.006Z,8.68
2019-04-06T00:38:18.144Z,8.65
2019-04-06T00:40:47.029Z,8.63
2019-04-06T00:43:16.893Z,8.69
2019-04-06T00:45:45.855Z,8.72
2019-04-06T00:48:15.489Z,8.73
2019-04-06T00:50:45.452Z,8.69
2019-04-06T00:53:14.573Z,8.73
2019-04-06T00:55:43.467Z,8.75
2019-04-06T00:58:12.469Z,8.77
2019-04-06T01:00:41.403Z,8.79
2019-04-06T01:03:10.374Z,8.78
2019-04-06T01:05:39.389Z,8.76
2019-04-06T01:08:09.500Z,8.76
2019-04-06T01:10:38.474Z,8.80
2019-04-06T01:13:07.444Z,8.78
2019-04-06T01:15:37.444Z,8.81
2019-04-06T01:18:06.389Z,8.76
2019-04-06T01:20:35.313Z,8.72
2019-04-06T01:23:05.633Z,8.66
2019-04-06T01:25:34.941Z,8.63
2019-04-06T01:28:03.999Z,8.61
2019-04-06T01:30:33.103Z,8.61
2019-04-06T01:33:02.075Z,8.64
2019-04-06T01:35:31.082Z,8.66
2019-04-06T01:38:00.067Z,8.65
2019-04-06T01:40:30.062Z,8.68
2019-04-06T01:42:58.947Z,8.72
2019-04-06T01:45:27.952Z,8.73
2019-04-06T01:47:56.790Z,8.76
2019-04-06T01:50:25.674Z,8.78
2019-04-06T01:52:54.537Z,8.75
2019-04-06T01:55:23.429Z,8.73
2019-04-06T01:57:52.332Z,8.67
2019-04-06T02:00:21.797Z,8.64
2019-04-06T02:02:52.876Z,8.62
2019-04-06T02:05:22.689Z,8.63
2019-04-06T02:07:51.683Z,8.65
2019-04-06T02:10:20.649Z,8.64
2019-04-06T02:12:49.548Z,8.65
2019-04-06T02:15:19.173Z,8.61
2019-04-06T02:17:48.207Z,8.60
2019-04-06T02:20:17.382Z,8.59
2019-04-06T02:22:46.296Z,8.58
2019-04-06T02:25:19.297Z,8.56
2019-04-06T02:27:48.172Z,8.59
2019-04-06T02:30:22.668Z,8.62
2019-04-06T02:33:14.668Z,8.56
2019-04-06T02:35:49.188Z,8.52
2019-04-06T02:38:25.748Z,8.53
2019-04-06T02:40:58.750Z,8.51
2019-04-06T02:43:32.746Z,8.50
2019-04-06T02:46:01.660Z,8.52
2019-04-06T02:48:30.544Z,8.49
2019-04-06T02:50:59.504Z,8.49
2019-04-06T02:53:29.090Z,8.51
2019-04-06T02:55:57.987Z,8.50
2019-04-06T02:58:27.146Z,8.51
2019-04-06T03:00:55.958Z,8.49
2019-04-06T03:03:24.988Z,8.47
2019-04-06T03:05:53.912Z,8.47
2019-04-06T03:08:23.175Z,8.51
2019-04-06T03:10:52.289Z,8.51
2019-04-06T03:13:21.601Z,8.47
2019-04-06T03:15:50.553Z,8.48
2019-04-06T03:18:19.508Z,8.48
2019-04-06T03:20:48.467Z,8.48
2019-04-06T03:23:17.437Z,8.46
2019-04-06T03:25:46.626Z,8.47
2019-04-06T03:28:16.360Z,8.47
2019-04-06T03:30:45.784Z,8.47
2019-04-06T03:33:14.689Z,8.43
2019-04-06T03:35:47.832Z,8.47
2019-04-06T03:38:14.862Z,8.47
2019-04-06T03:40:43.505Z,8.50
2019-04-06T03:43:12.897Z,8.48
2019-04-06T03:45:41.887Z,8.50
2019-04-06T03:48:11.420Z,8.50
2019-04-06T03:50:40.097Z,8.47
2019-04-06T03:53:09.052Z,8.48
2019-04-06T03:55:37.948Z,8.50
2019-04-06T03:58:08.611Z,8.51
2019-04-06T04:00:37.326Z,8.45
2019-04-06T04:03:06.259Z,8.38
2019-04-06T04:05:36.222Z,8.40
2019-04-06T04:10:41.608Z,8.42
2019-04-06T04:13:11.017Z,8.43
2019-04-06T04:15:39.864Z,8.39
2019-04-06T04:18:09.261Z,8.40
2019-04-06T04:20:38.337Z,8.43
2019-04-06T04:23:07.599Z,8.44
2019-04-06T04:25:36.382Z,8.45
2019-04-06T04:28:05.195Z,8.43
2019-04-06T04:30:34.684Z,8.47
2019-04-06T04:33:03.078Z,8.49
2019-04-06T04:35:32.556Z,8.48
2019-04-06T04:38:01.427Z,8.49
2019-04-06T04:40:30.300Z,8.53
2019-04-06T04:43:00.129Z,8.48
2019-04-06T04:45:29.082Z,8.51
2019-04-06T04:47:57.721Z,8.48
2019-04-06T04:50:26.385Z,8.45
2019-04-06T04:52:56.368Z,8.48
2019-04-06T04:55:26.378Z,8.48
2019-04-06T04:57:56.403Z,8.50
2019-04-06T05:00:25.367Z,8.50
2019-04-06T05:02:53.990Z,8.49
2019-04-06T05:05:23.347Z,8.47
2019-04-06T05:07:52.190Z,8.48
2019-04-06T05:10:21.362Z,8.48
2019-04-06T05:12:51.390Z,8.46
2019-04-06T05:15:25.098Z,8.46
2019-04-06T05:17:55.938Z,8.46
2019-04-06T05:20:27.457Z,8.39
2019-04-06T05:22:57.299Z,8.42
2019-04-06T05:25:26.103Z,8.44
2019-04-06T05:27:54.910Z,8.49
2019-04-06T05:30:23.777Z,8.52
2019-04-06T05:32:53.274Z,8.53
2019-04-06T05:35:22.803Z,8.52
2019-04-06T05:37:51.679Z,8.52
2019-04-06T05:40:21.055Z,8.49
2019-04-06T05:42:50.496Z,8.45
2019-04-06T05:45:19.383Z,8.46
2019-04-06T05:47:48.900Z,8.48
2019-04-06T05:50:17.747Z,8.49
2019-04-06T05:52:47.262Z,8.48
2019-04-06T05:55:16.774Z,8.49
2019-04-06T05:57:45.520Z,8.52
2019-04-06T06:00:14.331Z,8.56
2019-04-06T06:02:43.155Z,8.62
2019-04-06T06:05:13.500Z,8.61
2019-04-06T06:07:43.032Z,8.69
2019-04-06T06:10:11.985Z,8.74
2019-04-06T06:12:40.794Z,8.72
2019-04-06T06:15:10.818Z,8.73
2019-04-06T06:17:40.023Z,8.73
2019-04-06T06:20:08.836Z,8.75
2019-04-06T06:22:39.786Z,8.75
2019-04-06T06:25:09.208Z,8.78
2019-04-06T06:27:38.017Z,8.80
2019-04-06T06:30:06.934Z,8.80
2019-04-06T06:32:36.396Z,8.81
2019-04-06T06:35:05.242Z,8.83
2019-04-06T06:37:34.036Z,8.87
2019-04-06T06:40:02.910Z,8.91
2019-04-06T06:42:32.758Z,8.92
2019-04-06T06:45:01.562Z,8.90
2019-04-06T06:47:31.183Z,8.95
2019-04-06T06:50:01.138Z,8.96
2019-04-06T06:52:30.394Z,9.03
2019-04-06T06:55:00.352Z,9.06
2019-04-06T06:57:29.707Z,9.07
2019-04-06T06:59:58.532Z,9.08
2019-04-06T07:02:27.378Z,9.08
2019-04-06T07:04:56.866Z,9.07
2019-04-06T07:07:25.698Z,9.15
2019-04-06T07:10:04.439Z,9.20
2019-04-06T07:12:23.923Z,9.12
2019-04-06T07:14:52.725Z,9.06
2019-04-06T07:17:21.591Z,9.12
2019-04-06T07:19:50.387Z,9.17
2019-04-06T07:22:19.327Z,9.22
2019-04-06T07:24:48.333Z,9.16
2019-04-06T07:27:17.643Z,9.16
2019-04-06T07:29:47.104Z,9.16
2019-04-06T07:32:15.860Z,9.19
2019-04-06T07:34:45.265Z,9.24
2019-04-06T07:37:14.078Z,9.28
2019-04-06T07:39:42.895Z,9.34
2019-04-06T07:42:12.694Z,9.39
2019-04-06T07:44:43.534Z,9.44
2019-04-06T07:47:14.983Z,9.42
2019-04-06T07:49:47.048Z,9.48
2019-04-06T07:52:16.420Z,9.50
2019-04-06T07:54:45.205Z,9.52
2019-04-06T07:57:14.379Z,9.49
2019-04-06T07:59:43.467Z,9.52
2019-04-06T08:02:12.470Z,9.51
2019-04-06T08:04:41.309Z,9.56
2019-04-06T08:07:12.190Z,9.64
2019-04-06T08:09:40.884Z,9.70
2019-04-06T08:12:10.370Z,9.79
2019-04-06T08:14:40.064Z,9.90
2019-04-06T08:17:08.889Z,10.03
2019-04-06T08:19:37.728Z,10.06
2019-04-06T08:22:06.979Z,10.07
2019-04-06T08:24:35.731Z,10.17
2019-04-06T08:27:04.478Z,10.29
2019-04-06T08:29:33.715Z,10.33
2019-04-06T08:32:04.287Z,10.34
2019-04-06T08:34:33.377Z,10.35
2019-04-06T08:37:02.447Z,10.38
2019-04-06T08:39:31.261Z,10.52
2019-04-06T08:42:00.911Z,10.62
2019-04-06T08:44:30.366Z,10.75
2019-04-06T08:46:59.218Z,10.81
2019-04-06T08:49:28.922Z,10.89
2019-04-06T08:51:58.485Z,10.90
2019-04-06T08:54:27.301Z,10.94
2019-04-06T08:56:56.235Z,10.97
2019-04-06T08:59:25.039Z,11.10
2019-04-06T09:01:54.698Z,11.12
2019-04-06T09:04:23.528Z,11.17
2019-04-06T09:06:52.478Z,11.06
2019-04-06T09:09:21.293Z,10.96
2019-04-06T09:11:50.748Z,11.04
2019-04-06T09:14:20.299Z,11.08
2019-04-06T09:16:49.175Z,11.20
2019-04-06T09:19:18.575Z,11.31
2019-04-06T09:21:48.020Z,11.31
2019-04-06T09:24:17.934Z,11.35
2019-04-06T09:26:48.482Z,11.41
2019-04-06T09:29:22.975Z,11.51
2019-04-06T09:31:45.775Z,11.62
2019-04-06T09:34:15.019Z,11.64
2019-04-06T09:36:43.853Z,11.83
2019-04-06T09:39:13.170Z,12.16
2019-04-06T09:41:41.994Z,12.33
2019-04-06T09:44:16.906Z,12.48
2019-04-06T09:46:51.274Z,12.63
2019-04-06T09:49:29.059Z,12.68
2019-04-06T09:52:10.102Z,12.67
2019-04-06T09:54:44.048Z,12.82
2019-04-06T09:57:22.774Z,12.90
2019-04-06T09:59:57.178Z,13.23
2019-04-06T10:02:31.050Z,13.35
2019-04-06T10:05:06.842Z,13.56
2019-04-06T10:07:41.020Z,13.80
2019-04-06T10:10:17.190Z,13.94
2019-04-06T10:12:53.365Z,14.08
2019-04-06T10:15:36.243Z,14.21
2019-04-06T10:19:14.009Z,14.53
2019-04-06T10:21:49.055Z,15.10
2019-04-06T10:24:25.270Z,15.17
2019-04-06T10:27:00.706Z,15.00
2019-04-06T10:31:42.131Z,14.97
2019-04-06T10:34:23.028Z,14.79
2019-04-06T10:37:56.361Z,14.60
2019-04-06T10:40:29.875Z,15.11
2019-04-06T10:43:04.118Z,15.61
2019-04-06T10:45:37.918Z,15.73
2019-04-06T10:48:11.396Z,15.64
2019-04-06T10:50:46.271Z,15.63
2019-04-06T10:53:36.385Z,15.64
2019-04-06T10:56:11.557Z,15.48
2019-04-06T10:58:46.024Z,15.55
2019-04-06T11:01:21.854Z,15.68
2019-04-06T11:03:57.103Z,15.65
2019-04-06T11:06:31.738Z,15.80
2019-04-06T11:09:06.410Z,15.65
2019-04-06T11:11:55.402Z,15.42
2019-04-06T11:14:32.170Z,15.30
2019-04-06T11:17:06.046Z,15.16
2019-04-06T11:19:43.628Z,15.56
2019-04-06T11:22:21.374Z,15.61
2019-04-06T11:25:09.417Z,15.60
2019-04-06T11:27:44.403Z,15.96
2019-04-06T11:30:32.924Z,16.25
2019-04-06T11:33:10.814Z,16.18
2019-04-06T11:35:43.791Z,16.39
2019-04-06T11:38:21.299Z,16.43
2019-04-06T11:40:55.995Z,16.44
2019-04-06T11:43:32.113Z,16.58
2019-04-06T11:46:06.271Z,16.79
2019-04-06T11:48:45.857Z,16.89
2019-04-06T11:51:23.095Z,17.27
2019-04-06T11:54:01.280Z,17.43
2019-04-06T11:57:35.161Z,17.35
2019-04-06T12:00:24.671Z,16.64
2019-04-06T12:02:51.686Z,16.70
2019-04-06T12:05:26.819Z,17.43
2019-04-06T12:08:07.939Z,17.67
2019-04-06T12:10:43.631Z,17.92
2019-04-06T12:13:17.752Z,17.87
2019-04-06T12:15:55.549Z,18.20
2019-04-06T12:18:34.499Z,18.13
2019-04-06T12:21:17.580Z,17.73
2019-04-06T12:23:51.747Z,17.78
2019-04-06T12:26:27.166Z,18.23
2019-04-06T12:29:03.269Z,18.32
2019-04-06T12:31:37.180Z,18.33
2019-04-06T12:34:11.240Z,18.83
2019-04-06T12:37:48.043Z,18.55
2019-04-06T12:40:37.203Z,18.31
2019-04-06T12:43:12.079Z,18.15
2019-04-06T12:45:46.093Z,18.11
2019-04-06T12:48:20.422Z,17.66
2019-04-06T12:50:54.287Z,17.71
2019-04-06T12:53:30.387Z,18.06
2019-04-06T12:56:09.313Z,18.14
2019-04-06T12:58:45.157Z,18.27
2019-04-06T13:01:20.308Z,18.68
2019-04-06T13:04:06.580Z,19.25
2019-04-06T13:06:41.732Z,19.54
2019-04-06T13:09:16.933Z,19.24
2019-04-06T13:11:49.808Z,18.71
2019-04-06T13:14:25.308Z,18.58
2019-04-06T13:17:00.922Z,18.99
2019-04-06T13:19:35.148Z,19.24
2019-04-06T13:22:11.608Z,19.79
2019-04-06T13:24:50.562Z,19.87
2019-04-06T13:27:28.563Z,19.33
2019-04-06T13:30:03.548Z,19.31
2019-04-06T13:32:37.773Z,18.90
2019-04-06T13:35:10.769Z,18.85
2019-04-06T13:38:43.018Z,19.27
2019-04-06T13:41:16.171Z,19.64
2019-04-06T13:43:50.394Z,20.00
2019-04-06T13:46:27.406Z,19.92
2019-04-06T13:49:34.275Z,19.86
2019-04-06T13:52:09.857Z,19.57
2019-04-06T13:54:43.798Z,19.28
2019-04-06T13:57:18.813Z,18.68
2019-04-06T13:59:51.570Z,18.40
2019-04-06T14:02:30.273Z,18.03
2019-04-06T14:05:07.408Z,17.97
2019-04-06T14:07:40.467Z,17.99
2019-04-06T14:10:14.740Z,17.98
2019-04-06T14:13:04.590Z,17.86
2019-04-06T14:16:41.480Z,17.78
2019-04-06T14:19:15.433Z,17.98
2019-04-06T14:21:52.399Z,18.22
2019-04-06T14:24:25.371Z,18.54
2019-04-06T14:27:00.203Z,18.97
2019-04-06T14:29:41.408Z,19.11
2019-04-06T14:32:31.354Z,18.83
2019-04-06T14:35:11.927Z,18.88
2019-04-06T14:38:00.941Z,18.44
2019-04-06T14:40:35.174Z,18.70
2019-04-06T14:43:10.449Z,18.61
2019-04-06T14:45:46.931Z,18.82
2019-04-06T14:48:27.845Z,19.14
2019-04-06T14:51:04.330Z,19.40
2019-04-06T14:53:37.343Z,19.10
2019-04-06T14:56:12.604Z,18.99
2019-04-06T15:00:55.262Z,18.37
2019-04-06T15:03:33.505Z,18.07
2019-04-06T15:07:12.874Z,18.03
2019-04-06T15:09:45.520Z,18.06
2019-04-06T15:12:19.455Z,17.90
2019-04-06T15:14:54.831Z,17.87
2019-04-06T15:18:26.612Z,17.89
2019-04-06T15:21:00.901Z,17.93
2019-04-06T15:23:36.839Z,17.95
2019-04-06T15:26:11.621Z,17.89
2019-04-06T15:28:50.891Z,17.88
2019-04-06T15:32:25.896Z,17.89
2019-04-06T15:37:06.750Z,17.83
2019-04-06T15:39:39.219Z,17.32
2019-04-06T15:42:18.407Z,17.19
2019-04-06T15:45:00.910Z,17.16
2019-04-06T15:47:35.298Z,17.19
2019-04-06T15:52:15.694Z,17.19
2019-04-06T15:54:47.500Z,17.18
2019-04-06T15:57:26.895Z,17.19
2019-04-06T16:00:00.904Z,17.13
2019-04-06T16:02:35.551Z,17.04
2019-04-06T16:05:14.484Z,16.96
2019-04-06T16:07:49.307Z,16.90
2019-04-06T16:10:24.092Z,16.84
2019-04-06T16:12:57.049Z,16.52
2019-04-06T16:15:42.071Z,16.38
2019-04-06T16:18:16.901Z,16.23
2019-04-06T16:21:50.864Z,16.09
2019-04-06T16:24:29.380Z,16.03
2019-04-06T16:27:03.483Z,16.03
2019-04-06T16:29:51.560Z,15.90
2019-04-06T16:32:32.376Z,15.80
2019-04-06T16:37:06.562Z,15.78
2019-04-06T16:39:44.782Z,15.74
2019-04-06T16:42:19.889Z,15.77
2019-04-06T16:44:57.863Z,15.80
2019-04-06T16:47:47.010Z,15.81
2019-04-06T16:50:21.332Z,15.81
2019-04-06T16:52:58.610Z,15.79
2019-04-06T16:55:31.640Z,15.66
2019-04-06T16:58:05.582Z,15.59
2019-04-06T17:00:40.263Z,15.63
2019-04-06T17:03:22.302Z,15.63
2019-04-06T17:05:57.144Z,15.60
2019-04-06T17:08:31.867Z,15.55
2019-04-06T17:11:08.224Z,15.50
2019-04-06T17:13:43.019Z,15.40
2019-04-06T17:17:20.832Z,15.38
2019-04-06T17:19:58.513Z,15.33
2019-04-06T17:22:36.852Z,15.36
2019-04-06T17:25:27.719Z,15.35
2019-04-06T17:28:05.711Z,15.32
2019-04-06T17:30:41.862Z,15.27
2019-04-06T17:33:16.471Z,15.21
2019-04-06T17:36:49.170Z,15.20
2019-04-06T17:39:26.709Z,15.11
2019-04-06T17:42:01.173Z,15.05
2019-04-06T17:44:35.016Z,15.04
2019-04-06T17:47:09.226Z,15.02
2019-04-06T17:49:45.162Z,14.99
2019-04-06T17:52:22.291Z,14.95
2019-04-06T17:54:56.307Z,14.93
2019-04-06T17:57:35.545Z,14.87
2019-04-06T18:00:43.532Z,14.79
2019-04-06T18:03:18.715Z,14.73
2019-04-06T18:05:55.730Z,14.71
2019-04-06T18:08:31.713Z,14.64
2019-04-06T18:11:08.871Z,14.58
2019-04-06T18:13:43.821Z,14.51
2019-04-06T18:16:13.790Z,14.44
2019-04-06T18:18:42.966Z,14.42
2019-04-06T18:21:11.835Z,14.37
2019-04-06T18:23:40.718Z,14.30
2019-04-06T18:26:11.535Z,14.27
2019-04-06T18:28:40.828Z,14.21
2019-04-06T18:31:13.712Z,14.18
2019-04-06T18:33:42.496Z,14.13
2019-04-06T18:36:11.823Z,14.07
2019-04-06T18:38:45.272Z,14.02
2019-04-06T18:41:13.706Z,13.97
2019-04-06T18:43:42.579Z,13.94
2019-04-06T18:46:11.643Z,13.88
2019-04-06T18:48:40.493Z,13.84
2019-04-06T18:51:10.059Z,13.79
2019-04-06T18:53:39.384Z,13.74
2019-04-06T18:56:08.979Z,13.71
2019-04-06T18:58:38.782Z,13.67
2019-04-06T19:01:08.027Z,13.62
2019-04-06T19:03:36.971Z,13.57
2019-04-06T19:06:06.095Z,13.52
2019-04-06T19:08:35.231Z,13.47
2019-04-06T19:11:03.733Z,13.45
2019-04-06T19:13:32.628Z,13.45
2019-04-06T19:16:01.574Z,13.42
2019-04-06T19:18:30.761Z,13.40
2019-04-06T19:20:59.739Z,13.39
2019-04-06T19:23:29.743Z,13.39
2019-04-06T19:25:58.205Z,13.36
2019-04-06T19:28:27.577Z,13.35
2019-04-06T19:30:56.432Z,13.31
2019-04-06T19:33:25.958Z,13.29
2019-04-06T19:35:53.986Z,13.28
2019-04-06T19:38:23.403Z,13.27
2019-04-06T19:40:51.886Z,13.25
2019-04-06T19:43:21.992Z,13.23
2019-04-06T19:45:51.321Z,13.20
2019-04-06T19:48:20.038Z,13.17
2019-04-06T19:50:48.838Z,13.15
2019-04-06T19:53:18.867Z,13.15
2019-04-06T19:55:48.756Z,13.14
2019-04-06T19:58:22.687Z,13.13
2019-04-06T20:00:51.823Z,13.12
2019-04-06T20:03:20.440Z,13.09
2019-04-06T20:05:49.109Z,13.08
2019-04-06T20:08:18.717Z,13.07
2019-04-06T20:10:47.997Z,13.04
2019-04-06T20:13:16.664Z,13.02
2019-04-06T20:15:45.493Z,12.99
2019-04-06T20:18:14.484Z,12.97
2019-04-06T20:20:43.404Z,12.93
2019-04-06T20:23:12.784Z,12.91
2019-04-06T20:25:41.920Z,12.88
2019-04-06T20:28:12.068Z,12.87
2019-04-06T20:30:41.542Z,12.84
2019-04-06T20:33:12.432Z,12.81
2019-04-06T20:35:41.755Z,12.80
2019-04-06T20:38:10.702Z,12.77
2019-04-06T20:40:39.583Z,12.74
2019-04-06T20:43:08.779Z,12.71
2019-04-06T20:45:38.138Z,12.67
2019-04-06T20:48:07.682Z,12.65
2019-04-06T20:50:36.017Z,12.62
2019-04-06T20:53:04.919Z,12.57
2019-04-06T20:55:34.374Z,12.55
2019-04-06T20:58:03.949Z,12.52
2019-04-06T21:00:35.062Z,12.48
2019-04-06T21:03:05.075Z,12.46
2019-04-06T21:05:32.997Z,12.42
2019-04-06T21:08:02.255Z,12.39
2019-04-06T21:10:31.789Z,12.37
2019-04-06T21:13:00.620Z,12.32
2019-04-06T21:15:30.127Z,12.31
2019-04-06T21:17:59.919Z,12.27
2019-04-06T21:20:28.723Z,12.25
2019-04-06T21:22:58.518Z,12.23
2019-04-06T21:25:27.618Z,12.21
2019-04-06T21:27:56.827Z,12.20
2019-04-06T21:30:26.278Z,12.22
2019-04-06T21:32:55.166Z,12.23
2019-04-06T21:35:24.170Z,12.23
2019-04-06T21:37:55.908Z,12.20
2019-04-06T21:40:24.278Z,12.19
2019-04-06T21:42:53.307Z,12.18
2019-04-06T21:45:23.422Z,12.23
2019-04-06T21:47:51.916Z,12.28
2019-04-06T21:50:21.984Z,12.34
2019-04-06T21:52:51.935Z,12.39
2019-04-06T21:55:20.701Z,12.40
2019-04-06T21:57:49.335Z,12.41
2019-04-06T22:00:25.272Z,12.46
2019-04-06T22:02:54.292Z,12.52
2019-04-06T22:05:23.120Z,12.56
2019-04-06T22:07:53.777Z,12.60
2019-04-06T22:10:20.907Z,12.64
2019-04-06T22:12:50.198Z,12.67
2019-04-06T22:15:20.418Z,12.70
2019-04-06T22:17:50.466Z,12.74
2019-04-06T22:20:18.675Z,12.76
2019-04-06T22:22:48.276Z,12.77
2019-04-06T22:25:17.667Z,12.79
2019-04-06T22:27:46.062Z,12.81
2019-04-06T22:30:15.024Z,12.86
2019-04-06T22:32:46.174Z,12.89
2019-04-06T22:35:15.023Z,12.91
2019-04-06T22:37:43.975Z,12.96
2019-04-06T22:40:13.076Z,13.02
2019-04-06T22:42:43.543Z,13.07
2019-04-06T22:45:12.551Z,13.10
2019-04-06T22:47:41.548Z,13.13
2019-04-06T22:50:11.091Z,13.15
2019-04-06T22:52:39.930Z,13.17
2019-04-06T22:55:09.485Z,13.19
2019-04-06T22:57:38.294Z,13.22
2019-04-06T23:00:07.579Z,13.25
2019-04-06T23:02:41.597Z,13.27
2019-04-06T23:05:16.614Z,13.29
2019-04-06T23:07:45.665Z,13.31
2019-04-06T23:10:14.595Z,13.32
2019-04-06T23:12:43.893Z,13.34
2019-04-06T23:15:13.322Z,13.34
2019-04-06T23:17:42.202Z,13.35
2019-04-06T23:20:11.386Z,13.34
2019-04-06T23:22:40.295Z,13.33
2019-04-06T23:25:09.472Z,13.36
2019-04-06T23:27:38.004Z,13.37
2019-04-06T23:30:07.887Z,13.37
2019-04-06T23:32:37.380Z,13.37
2019-04-06T23:35:06.977Z,13.37
2019-04-06T23:37:35.530Z,13.39
2019-04-06T23:40:05.389Z,13.38
2019-04-06T23:42:36.441Z,13.37
2019-04-06T23:45:05.917Z,13.37
2019-04-06T23:47:35.120Z,13.38
2019-04-06T23:50:04.613Z,13.39
2019-04-06T23:52:33.545Z,13.40
2019-04-06T23:55:02.685Z,13.41
2019-04-06T23:57:32.048Z,13.41
